createdAt,value
2018-04-10T00:00:27.439Z,78.73
2018-04-10T00:02:54.935Z,78.93
2018-04-10T00:05:22.422Z,78.96
2018-04-10T00:07:49.944Z,78.68
2018-04-10T00:10:17.428Z,78.46
2018-04-10T00:12:44.878Z,78.79
2018-04-10T00:15:12.360Z,78.74
2018-04-10T00:17:39.814Z,78.58
2018-04-10T00:20:07.391Z,78.50
2018-04-10T00:22:34.843Z,78.20
2018-04-10T00:25:02.323Z,78.03
2018-04-10T00:27:29.775Z,78.01
2018-04-10T00:29:57.280Z,77.81
2018-04-10T00:32:24.726Z,78.02
2018-04-10T00:34:52.208Z,77.49
2018-04-10T00:37:19.736Z,77.72
2018-04-10T00:39:47.295Z,77.23
2018-04-10T00:42:16.871Z,77.50
2018-04-10T00:44:44.359Z,77.65
2018-04-10T00:47:11.893Z,77.79
2018-04-10T00:49:39.400Z,77.86
2018-04-10T00:52:06.915Z,78.19
2018-04-10T00:54:34.370Z,77.91
2018-04-10T00:57:01.848Z,77.56
2018-04-10T00:59:29.294Z,77.52
2018-04-10T01:01:56.796Z,78.18
2018-04-10T01:04:24.306Z,78.04
2018-04-10T01:06:51.787Z,77.84
2018-04-10T01:09:19.229Z,77.93
2018-04-10T01:11:46.791Z,77.60
2018-04-10T01:14:14.248Z,77.69
2018-04-10T01:16:41.739Z,77.54
2018-04-10T01:19:09.259Z,77.18
2018-04-10T01:21:36.730Z,77.27
2018-04-10T01:24:04.226Z,76.86
2018-04-10T01:26:32.595Z,76.88
2018-04-10T01:29:00.365Z,76.84
2018-04-10T01:31:27.810Z,76.77
2018-04-10T01:33:55.286Z,77.37
2018-04-10T01:36:22.738Z,77.27
2018-04-10T01:38:50.215Z,77.75
2018-04-10T01:41:17.667Z,78.09
2018-04-10T01:43:45.163Z,77.67
2018-04-10T01:46:12.610Z,77.79
2018-04-10T01:48:40.090Z,77.74
2018-04-10T01:51:07.543Z,77.90
2018-04-10T01:53:35.027Z,77.21
2018-04-10T01:56:02.474Z,76.65
2018-04-10T01:58:29.975Z,75.81
2018-04-10T02:00:57.479Z,75.24
2018-04-10T02:03:26.583Z,74.70
2018-04-10T02:05:54.182Z,74.65
2018-04-10T02:08:21.627Z,74.91
2018-04-10T02:13:40.299Z,74.87
2018-04-10T02:16:07.775Z,74.65
2018-04-10T02:18:35.217Z,74.66
2018-04-10T02:21:02.691Z,74.40
2018-04-10T02:23:30.144Z,74.28
2018-04-10T02:25:57.733Z,74.69
2018-04-10T02:28:25.208Z,75.12
2018-04-10T02:30:52.738Z,74.71
2018-04-10T02:33:20.198Z,74.65
2018-04-10T02:35:47.675Z,75.14
2018-04-10T02:38:16.119Z,74.89
2018-04-10T02:40:45.559Z,75.25
2018-04-10T02:43:13.037Z,74.90
2018-04-10T02:45:40.514Z,74.94
2018-04-10T02:48:07.968Z,75.25
2018-04-10T02:50:35.448Z,75.24
2018-04-10T02:53:02.900Z,75.45
2018-04-10T02:55:30.410Z,75.62
2018-04-10T02:57:57.858Z,75.33
2018-04-10T03:00:25.332Z,75.56
2018-04-10T03:02:52.811Z,75.36
2018-04-10T03:05:20.268Z,75.14
2018-04-10T03:07:47.842Z,74.50
2018-04-10T03:10:15.323Z,74.92
2018-04-10T03:12:42.811Z,75.23
2018-04-10T03:15:10.266Z,75.53
2018-04-10T03:17:38.736Z,74.84
2018-04-10T03:20:06.179Z,74.45
2018-04-10T03:22:33.650Z,74.92
2018-04-10T03:25:01.094Z,75.98
2018-04-10T03:27:28.572Z,75.38
2018-04-10T03:29:56.023Z,75.74
2018-04-10T03:32:23.503Z,76.13
2018-04-10T03:34:50.963Z,75.77
2018-04-10T03:37:18.448Z,75.27
2018-04-10T03:39:45.905Z,74.97
2018-04-10T03:42:13.408Z,74.92
2018-04-10T03:44:40.856Z,75.12
2018-04-10T03:47:08.307Z,75.54
2018-04-10T03:49:35.783Z,75.86
2018-04-10T03:52:03.232Z,76.23
2018-04-10T03:54:30.718Z,75.74
2018-04-10T03:56:58.172Z,75.86
2018-04-10T03:59:25.665Z,75.20
2018-04-10T04:01:53.132Z,76.18
2018-04-10T04:04:20.731Z,75.90
2018-04-10T04:06:49.219Z,75.90
2018-04-10T04:09:16.714Z,76.45
2018-04-10T04:11:44.159Z,75.98
2018-04-10T04:14:11.639Z,76.21
2018-04-10T04:16:50.906Z,76.12
2018-04-10T04:19:30.185Z,75.87
2018-04-10T04:22:11.331Z,76.25
2018-04-10T04:24:38.815Z,76.39
2018-04-10T04:27:06.368Z,76.19
2018-04-10T04:29:33.861Z,76.16
2018-04-10T04:32:01.323Z,75.83
2018-04-10T04:34:28.819Z,76.13
2018-04-10T04:36:56.291Z,75.52
2018-04-10T04:39:23.743Z,75.40
2018-04-10T04:41:51.231Z,75.64
2018-04-10T04:44:18.753Z,75.54
2018-04-10T04:46:46.317Z,75.26
2018-04-10T04:49:13.775Z,74.72
2018-04-10T04:51:41.329Z,75.35
2018-04-10T04:54:09.775Z,75.58
2018-04-10T04:56:37.368Z,74.95
2018-04-10T04:59:04.823Z,74.71
2018-04-10T05:01:33.293Z,75.56
2018-04-10T05:04:00.742Z,76.21
2018-04-10T05:06:28.214Z,75.92
2018-04-10T05:08:55.664Z,75.70
2018-04-10T05:11:23.114Z,75.12
2018-04-10T05:13:50.590Z,74.73
2018-04-10T05:16:18.037Z,74.34
2018-04-10T05:18:45.511Z,74.73
2018-04-10T05:21:13.048Z,74.02
2018-04-10T05:23:40.524Z,73.98
2018-04-10T05:26:07.974Z,73.80
2018-04-10T05:28:35.522Z,73.78
2018-04-10T05:31:02.966Z,74.49
2018-04-10T05:33:30.443Z,75.04
2018-04-10T05:35:57.897Z,74.19
2018-04-10T05:38:25.384Z,74.16
2018-04-10T05:40:53.847Z,74.01
2018-04-10T05:43:23.360Z,75.16
2018-04-10T05:45:50.811Z,75.21
2018-04-10T05:48:18.362Z,74.36
2018-04-10T05:50:45.846Z,75.26
2018-04-10T05:53:13.300Z,75.31
2018-04-10T05:55:40.835Z,75.33
2018-04-10T05:58:08.387Z,74.83
2018-04-10T06:00:35.865Z,74.29
2018-04-10T06:03:03.398Z,74.61
2018-04-10T06:05:30.886Z,74.41
2018-04-10T06:07:58.343Z,74.68
2018-04-10T06:10:25.818Z,74.26
2018-04-10T06:12:53.263Z,74.53
2018-04-10T06:15:20.711Z,74.37
2018-04-10T06:17:48.207Z,73.68
2018-04-10T06:20:15.668Z,73.30
2018-04-10T06:22:43.171Z,73.28
2018-04-10T06:25:10.622Z,73.55
2018-04-10T06:27:38.106Z,72.22
2018-04-10T06:30:05.588Z,72.45
2018-04-10T06:32:33.084Z,71.97
2018-04-10T06:35:00.542Z,72.18
2018-04-10T06:37:32.313Z,72.32
2018-04-10T06:39:59.774Z,71.57
2018-04-10T06:42:27.272Z,72.03
2018-04-10T06:44:56.683Z,72.30
2018-04-10T06:47:24.163Z,71.53
2018-04-10T06:49:51.620Z,70.65
2018-04-10T06:52:19.108Z,69.18
2018-04-10T06:54:46.562Z,71.11
2018-04-10T06:57:14.044Z,71.12
2018-04-10T06:59:45.074Z,70.70
2018-04-10T07:02:12.527Z,71.33
2018-04-10T07:04:40.988Z,70.97
2018-04-10T07:07:11.672Z,70.13
2018-04-10T07:09:39.162Z,69.80
2018-04-10T07:12:08.548Z,70.92
2018-04-10T07:14:37.941Z,70.51
2018-04-10T07:17:09.639Z,70.75
2018-04-10T07:19:37.122Z,70.20
2018-04-10T07:22:05.624Z,70.92
2018-04-10T07:24:36.311Z,69.78
2018-04-10T07:27:03.767Z,69.01
2018-04-10T07:29:32.348Z,69.92
2018-04-10T07:31:59.802Z,69.56
2018-04-10T07:34:27.351Z,70.17
2018-04-10T07:36:54.826Z,69.04
2018-04-10T07:39:24.316Z,67.67
2018-04-10T07:41:51.772Z,67.77
2018-04-10T07:44:19.339Z,66.91
2018-04-10T07:46:46.818Z,67.82
2018-04-10T07:49:14.282Z,67.34
2018-04-10T07:51:41.768Z,66.86
2018-04-10T07:54:10.155Z,67.53
2018-04-10T07:56:37.643Z,67.98
2018-04-10T07:59:05.107Z,67.64
2018-04-10T08:01:33.583Z,67.14
2018-04-10T08:04:01.040Z,66.45
2018-04-10T08:06:28.520Z,66.67
2018-04-10T08:08:57.972Z,66.73
2018-04-10T08:11:25.483Z,67.67
2018-04-10T08:13:52.955Z,67.67
2018-04-10T08:16:20.448Z,68.16
2018-04-10T08:18:47.923Z,67.98
2018-04-10T08:21:15.493Z,67.24
2018-04-10T08:23:42.951Z,67.71
2018-04-10T08:26:10.492Z,69.05
2018-04-10T08:28:37.935Z,68.33
2018-04-10T08:31:05.383Z,69.11
2018-04-10T08:33:33.797Z,68.05
2018-04-10T08:36:01.259Z,67.80
2018-04-10T08:38:28.741Z,67.37
2018-04-10T08:40:56.186Z,66.30
2018-04-10T08:43:23.658Z,67.94
2018-04-10T08:45:51.190Z,67.53
2018-04-10T08:48:20.591Z,67.20
2018-04-10T08:50:48.059Z,67.96
2018-04-10T08:53:15.604Z,68.59
2018-04-10T08:55:43.059Z,67.16
2018-04-10T08:58:11.548Z,65.99
2018-04-10T09:00:39.095Z,64.81
2018-04-10T09:03:06.584Z,65.81
2018-04-10T09:05:34.037Z,67.06
2018-04-10T09:08:01.531Z,67.35
2018-04-10T09:10:30.940Z,68.15
2018-04-10T09:12:58.401Z,69.15
2018-04-10T09:15:25.883Z,68.16
2018-04-10T09:17:53.343Z,66.37
2018-04-10T09:20:25.778Z,65.06
2018-04-10T09:22:53.235Z,65.38
2018-04-10T09:25:20.735Z,65.95
2018-04-10T09:27:48.183Z,63.52
2018-04-10T09:30:15.668Z,62.37
2018-04-10T09:32:43.164Z,61.79
2018-04-10T09:35:10.648Z,61.86
2018-04-10T09:37:38.107Z,61.51
2018-04-10T09:40:05.595Z,62.86
2018-04-10T09:42:33.055Z,63.11
2018-04-10T09:45:00.559Z,62.15
2018-04-10T09:47:28.016Z,62.69
2018-04-10T09:49:55.526Z,61.61
2018-04-10T09:52:22.981Z,60.36
2018-04-10T09:54:50.425Z,61.70
2018-04-10T09:57:17.904Z,61.03
2018-04-10T09:59:45.367Z,60.33
2018-04-10T10:02:12.859Z,62.14
2018-04-10T10:04:40.317Z,61.45
2018-04-10T10:07:07.808Z,64.20
2018-04-10T10:09:35.263Z,64.87
2018-04-10T10:12:02.756Z,62.77
2018-04-10T10:14:30.212Z,63.27
2018-04-10T10:16:57.702Z,62.86
2018-04-10T10:19:25.152Z,62.00
2018-04-10T10:21:55.987Z,60.43
2018-04-10T10:24:23.456Z,60.06
2018-04-10T10:26:50.944Z,59.07
2018-04-10T10:29:18.408Z,60.57
2018-04-10T10:31:51.039Z,60.49
2018-04-10T10:34:18.491Z,63.05
2018-04-10T10:36:46.909Z,63.44
2018-04-10T10:39:14.367Z,63.20
2018-04-10T10:41:41.818Z,60.66
2018-04-10T10:44:09.374Z,61.31
2018-04-10T10:46:36.835Z,62.41
2018-04-10T10:49:04.341Z,63.92
2018-04-10T10:51:31.813Z,64.68
2018-04-10T10:54:00.234Z,66.51
2018-04-10T10:56:32.665Z,65.73
2018-04-10T10:59:00.183Z,65.98
2018-04-10T11:01:27.639Z,68.22
2018-04-10T11:03:55.124Z,69.05
2018-04-10T11:06:22.585Z,71.24
2018-04-10T11:08:50.080Z,71.13
2018-04-10T11:11:17.538Z,70.76
2018-04-10T11:13:45.028Z,70.19
2018-04-10T11:16:12.487Z,69.34
2018-04-10T11:18:39.976Z,69.00
2018-04-10T11:21:07.431Z,68.81
2018-04-10T11:23:36.941Z,68.75
2018-04-10T11:26:04.407Z,66.69
2018-04-10T11:28:31.895Z,66.25
2018-04-10T11:30:59.356Z,64.74
2018-04-10T11:33:26.849Z,66.17
2018-04-10T11:35:55.293Z,67.56
2018-04-10T11:38:22.751Z,66.78
2018-04-10T11:40:52.360Z,66.72
2018-04-10T11:43:19.816Z,68.74
2018-04-10T11:45:47.303Z,68.74
2018-04-10T11:48:14.768Z,68.01
2018-04-10T11:50:42.261Z,65.86
2018-04-10T11:53:09.736Z,65.29
2018-04-10T11:55:37.239Z,68.03
2018-04-10T11:58:06.601Z,69.13
2018-04-10T12:00:34.091Z,70.13
2018-04-10T12:03:01.567Z,68.69
2018-04-10T12:05:29.062Z,68.91
2018-04-10T12:07:56.543Z,69.28
2018-04-10T12:10:24.415Z,69.25
2018-04-10T12:12:51.887Z,68.46
2018-04-10T12:15:20.331Z,67.30
2018-04-10T12:17:47.817Z,68.01
2018-04-10T12:20:15.271Z,68.96
2018-04-10T12:22:43.659Z,71.33
2018-04-10T12:25:14.148Z,71.25
2018-04-10T12:27:41.630Z,71.42
2018-04-10T12:30:09.090Z,70.73
2018-04-10T12:32:37.553Z,70.84
2018-04-10T12:35:05.011Z,69.09
2018-04-10T12:37:32.495Z,69.79
2018-04-10T12:40:00.027Z,71.51
2018-04-10T12:42:27.514Z,70.23
2018-04-10T12:44:55.936Z,69.53
2018-04-10T12:47:23.440Z,69.95
2018-04-10T12:49:50.901Z,70.97
2018-04-10T12:52:18.408Z,70.99
2018-04-10T12:54:45.875Z,70.96
2018-04-10T12:57:13.383Z,73.03
2018-04-10T12:59:40.834Z,73.10
2018-04-10T13:02:08.323Z,72.53
2018-04-10T13:04:37.738Z,72.17
2018-04-10T13:07:06.195Z,71.28
2018-04-10T13:09:34.613Z,72.22
2018-04-10T13:12:02.071Z,72.57
2018-04-10T13:14:29.597Z,73.57
2018-04-10T13:16:57.060Z,72.54
2018-04-10T13:19:24.560Z,73.70
2018-04-10T13:21:52.021Z,71.96
2018-04-10T13:24:19.507Z,73.99
2018-04-10T13:26:46.958Z,74.17
2018-04-10T13:29:14.475Z,73.72
2018-04-10T13:31:41.936Z,71.33
2018-04-10T13:34:09.439Z,71.07
2018-04-10T13:36:36.930Z,71.56
2018-04-10T13:39:04.396Z,73.30
2018-04-10T13:41:31.898Z,73.54
2018-04-10T13:44:01.147Z,73.03
2018-04-10T13:46:28.697Z,73.26
2018-04-10T13:48:56.146Z,72.45
2018-04-10T13:51:23.625Z,73.01
2018-04-10T13:53:52.031Z,73.29
2018-04-10T13:56:19.511Z,73.91
2018-04-10T13:58:47.019Z,73.66
2018-04-10T14:01:14.506Z,72.82
2018-04-10T14:03:41.955Z,72.96
2018-04-10T14:06:09.443Z,73.88
2018-04-10T14:08:36.902Z,73.53
2018-04-10T14:11:04.390Z,73.37
2018-04-10T14:13:31.847Z,73.64
2018-04-10T14:15:59.334Z,73.58
2018-04-10T14:18:27.787Z,74.00
2018-04-10T14:20:55.275Z,74.28
2018-04-10T14:23:22.731Z,74.58
2018-04-10T14:25:50.395Z,74.18
2018-04-10T14:28:17.859Z,73.82
2018-04-10T14:30:45.318Z,74.97
2018-04-10T14:33:13.791Z,75.44
2018-04-10T14:35:41.446Z,75.00
2018-04-10T14:38:08.935Z,76.06
2018-04-10T14:40:36.387Z,75.03
2018-04-10T14:43:03.867Z,75.60
2018-04-10T14:45:32.291Z,75.60
2018-04-10T14:47:59.769Z,74.99
2018-04-10T14:50:27.222Z,75.06
2018-04-10T14:52:54.700Z,75.43
2018-04-10T14:55:22.164Z,76.21
2018-04-10T14:57:50.625Z,74.91
2018-04-10T15:00:18.079Z,76.21
2018-04-10T15:02:45.567Z,77.34
2018-04-10T15:05:13.024Z,77.03
2018-04-10T15:07:40.516Z,77.01
2018-04-10T15:10:08.040Z,77.19
2018-04-10T15:12:35.533Z,77.33
2018-04-10T15:15:03.009Z,77.59
2018-04-10T15:17:30.497Z,77.68
2018-04-10T15:19:57.942Z,77.69
2018-04-10T15:22:25.426Z,77.23
2018-04-10T15:24:52.890Z,77.31
2018-04-10T15:27:21.278Z,77.52
2018-04-10T15:29:48.763Z,78.00
2018-04-10T16:54:13.299Z,81.81
2018-04-10T16:56:40.799Z,81.02
2018-04-10T16:59:08.256Z,81.20
2018-04-10T17:01:35.739Z,80.97
2018-04-10T17:04:03.199Z,80.96
2018-04-10T17:06:30.687Z,81.00
2018-04-10T17:08:58.145Z,80.59
2018-04-10T17:11:26.614Z,80.83
2018-04-10T17:13:54.055Z,81.04
2018-04-10T17:16:22.552Z,81.13
2018-04-10T17:18:50.012Z,80.97
2018-04-10T17:21:17.493Z,81.26
2018-04-10T17:23:44.952Z,80.68
2018-04-10T17:26:12.439Z,80.38
2018-04-10T17:28:39.887Z,80.18
2018-04-10T17:31:07.384Z,79.87
2018-04-10T17:33:34.834Z,80.56
2018-04-10T17:36:02.295Z,80.54
2018-04-10T17:38:29.774Z,80.43
2018-04-10T17:40:57.257Z,80.72
2018-04-10T17:43:24.754Z,80.10
2018-04-10T17:45:52.226Z,80.29
2018-04-10T17:48:19.703Z,80.13
2018-04-10T17:50:51.023Z,79.92
2018-04-10T17:53:19.442Z,79.68
2018-04-10T17:55:46.907Z,79.99
2018-04-10T17:58:14.428Z,80.03
2018-04-10T18:00:43.800Z,79.99
2018-04-10T18:03:12.218Z,79.89
2018-04-10T18:05:41.684Z,80.01
2018-04-10T18:08:09.169Z,79.79
2018-04-10T18:10:38.565Z,79.59
2018-04-10T18:13:09.550Z,79.30
2018-04-10T18:15:37.066Z,79.75
2018-04-10T18:18:04.567Z,79.68
2018-04-10T18:20:32.024Z,79.90
2018-04-10T18:23:00.641Z,79.25
2018-04-10T18:25:28.115Z,79.31
2018-04-10T18:27:55.632Z,79.19
2018-04-10T18:30:23.644Z,79.05
2018-04-10T18:32:52.626Z,78.87
2018-04-10T18:35:21.313Z,78.89
2018-04-10T18:37:48.781Z,78.72
2018-04-10T18:40:16.259Z,78.37
2018-04-10T18:42:43.712Z,78.35
2018-04-10T18:45:11.191Z,78.81
2018-04-10T18:47:38.664Z,78.34
2018-04-10T18:50:06.151Z,77.94
2018-04-10T18:52:33.600Z,77.68
2018-04-10T18:55:01.092Z,82.65
2018-04-10T18:57:29.518Z,77.44
2018-04-10T18:59:57.004Z,75.49
2018-04-10T19:02:24.463Z,74.30
2018-04-10T19:04:51.947Z,74.14
2018-04-10T19:07:20.370Z,76.88
2018-04-10T19:09:47.887Z,76.36
2018-04-10T19:12:15.326Z,74.73
2018-04-10T19:14:42.819Z,75.83
2018-04-10T19:17:10.320Z,76.16
2018-04-10T19:19:37.767Z,76.93
2018-04-10T19:22:07.179Z,76.97
2018-04-10T19:24:35.609Z,76.78
2018-04-10T19:27:03.112Z,76.94
2018-04-10T19:29:30.681Z,76.90
2018-04-10T19:31:58.162Z,76.76
2018-04-10T19:34:25.620Z,76.54
2018-04-10T19:36:53.172Z,76.72
2018-04-10T19:39:20.624Z,76.66
2018-04-10T19:41:50.126Z,76.56
2018-04-10T19:44:17.563Z,77.04
2018-04-10T19:46:45.040Z,76.89
2018-04-10T19:49:12.499Z,76.64
2018-04-10T19:51:39.979Z,76.67
2018-04-10T19:54:07.436Z,76.59
2018-04-10T19:56:35.040Z,76.65
2018-04-10T19:59:02.492Z,76.21
2018-04-10T20:01:29.967Z,76.32
2018-04-10T20:03:57.417Z,75.95
2018-04-10T20:06:25.193Z,76.33
2018-04-10T20:08:52.767Z,76.13
2018-04-10T20:11:20.311Z,76.44
2018-04-10T20:13:47.773Z,76.41
2018-04-10T20:16:15.223Z,76.04
2018-04-10T20:18:42.736Z,75.93
2018-04-10T20:21:10.191Z,75.94
2018-04-10T20:23:37.668Z,76.13
2018-04-10T20:26:05.129Z,76.35
2018-04-10T20:28:32.695Z,76.08
2018-04-10T20:31:00.173Z,76.00
2018-04-10T20:33:27.661Z,76.16
2018-04-10T20:35:55.107Z,75.97
2018-04-10T20:38:22.635Z,76.08
2018-04-10T20:40:51.074Z,75.95
2018-04-10T20:43:19.685Z,75.64
2018-04-10T20:45:47.130Z,75.66
2018-04-10T20:48:14.614Z,76.03
2018-04-10T20:50:42.059Z,75.74
2018-04-10T20:53:09.739Z,75.70
2018-04-10T20:55:37.199Z,75.19
2018-04-10T20:58:04.753Z,74.84
2018-04-10T21:00:32.304Z,75.01
2018-04-10T21:02:59.760Z,75.28
2018-04-10T21:05:27.281Z,75.70
2018-04-10T21:07:54.759Z,75.31
2018-04-10T21:10:22.243Z,75.21
2018-04-10T21:12:49.787Z,75.31
2018-04-10T21:15:17.267Z,74.79
2018-04-10T21:17:44.751Z,74.73
2018-04-10T21:20:12.234Z,74.79
2018-04-10T21:22:39.684Z,75.11
2018-04-10T21:25:08.119Z,75.31
2018-04-10T21:27:35.575Z,75.33
2018-04-10T21:30:03.063Z,75.58
2018-04-10T21:32:30.583Z,75.80
2018-04-10T21:34:58.060Z,75.68
2018-04-10T21:37:25.511Z,75.78
2018-04-10T21:39:52.999Z,75.83
2018-04-10T21:42:20.439Z,75.85
2018-04-10T21:44:47.895Z,75.47
2018-04-10T21:47:15.404Z,75.53
2018-04-10T21:49:42.860Z,75.29
2018-04-10T21:52:10.443Z,75.46
2018-04-10T21:54:37.905Z,75.10
2018-04-10T21:57:05.383Z,75.35
2018-04-10T21:59:32.844Z,75.24
2018-04-10T22:02:00.319Z,75.45
2018-04-10T22:04:27.764Z,75.37
2018-04-10T22:06:55.235Z,75.18
2018-04-10T22:09:22.767Z,75.33
2018-04-10T22:11:50.235Z,75.00
2018-04-10T22:14:17.694Z,75.27
2018-04-10T22:16:45.187Z,75.41
2018-04-10T22:19:12.645Z,75.53
2018-04-10T22:21:40.119Z,75.14
2018-04-10T22:24:07.563Z,75.20
2018-04-10T22:26:35.328Z,75.24
2018-04-10T22:29:02.817Z,75.23
2018-04-10T22:31:30.295Z,75.20
2018-04-10T22:33:57.749Z,75.50
2018-04-10T22:36:26.175Z,75.53
2018-04-10T22:38:53.673Z,75.31
2018-04-10T22:41:21.321Z,75.55
2018-04-10T22:43:48.801Z,75.28
2018-04-10T22:46:16.252Z,75.51
2018-04-10T22:48:43.736Z,75.84
2018-04-10T22:51:11.193Z,75.65
2018-04-10T22:53:38.667Z,75.54
2018-04-10T22:56:07.020Z,75.95
2018-04-10T22:58:34.480Z,75.70
2018-04-10T23:01:01.991Z,75.82
2018-04-10T23:03:29.470Z,75.94
2018-04-10T23:05:57.020Z,75.61
2018-04-10T23:08:24.484Z,75.86
2018-04-10T23:10:51.973Z,76.15
2018-04-10T23:13:19.420Z,75.89
2018-04-10T23:15:46.899Z,76.29
2018-04-10T23:18:14.387Z,76.10
2018-04-10T23:20:41.886Z,76.14
2018-04-10T23:34:32.196Z,76.50
2018-04-10T23:36:59.674Z,76.19
2018-04-10T23:39:27.129Z,76.43
2018-04-10T23:41:54.603Z,76.43
2018-04-10T23:44:22.048Z,76.51
2018-04-10T23:46:49.540Z,76.63
2018-04-10T23:49:16.992Z,76.71
2018-04-10T23:51:44.435Z,76.42
2018-04-10T23:54:11.912Z,76.80
2018-04-10T23:56:39.360Z,76.42
2018-04-10T23:59:06.839Z,76.69
